createdAt,value
2023-04-22T00:03:25.876Z,16.67
2023-04-22T00:08:06.021Z,15.77
2023-04-22T00:12:49.501Z,12.20
2023-04-22T00:17:29.423Z,16.00
2023-04-22T00:22:11.268Z,17.23
2023-04-22T00:26:51.221Z,15.98
2023-04-22T00:31:32.584Z,14.25
2023-04-22T00:36:12.502Z,13.90
2023-04-22T00:40:52.637Z,15.75
2023-04-22T00:45:32.288Z,21.27
2023-04-22T00:50:15.466Z,16.45
2023-04-22T00:54:54.683Z,13.10
2023-04-22T00:59:40.520Z,11.07
2023-04-22T01:04:23.374Z,16.50
2023-04-22T01:09:04.051Z,13.87
2023-04-22T01:13:42.503Z,14.77
2023-04-22T01:18:21.948Z,15.98
2023-04-22T01:23:07.004Z,13.50
2023-04-22T01:27:50.353Z,14.60
2023-04-22T01:32:31.065Z,16.40
2023-04-22T01:37:09.463Z,13.15
2023-04-22T01:41:48.972Z,13.07
2023-04-22T01:46:29.510Z,14.68
2023-04-22T01:51:07.574Z,13.95
2023-04-22T01:55:48.424Z,13.67
2023-04-22T02:00:26.665Z,14.20
2023-04-22T02:05:12.812Z,14.02
2023-04-22T02:09:52.811Z,15.30
2023-04-22T02:14:31.529Z,14.57
2023-04-22T02:19:14.350Z,15.85
2023-04-22T02:23:55.210Z,15.70
2023-04-22T02:28:33.218Z,16.57
2023-04-22T02:33:13.527Z,15.70
2023-04-22T02:37:52.390Z,14.98
2023-04-22T02:42:36.512Z,18.87
2023-04-22T02:47:14.850Z,17.52
2023-04-22T02:51:54.133Z,14.98
2023-04-22T02:56:33.810Z,13.80
2023-04-22T03:01:14.907Z,16.77
2023-04-22T03:05:52.862Z,15.90
2023-04-22T03:10:32.549Z,15.32
2023-04-22T03:15:12.871Z,14.97
2023-04-22T03:19:52.883Z,15.30
2023-04-22T03:24:34.302Z,14.88
2023-04-22T03:29:16.806Z,14.70
2023-04-22T03:33:56.278Z,14.95
2023-04-22T03:38:40.564Z,16.55
2023-04-22T03:43:18.445Z,18.43
2023-04-22T03:48:07.518Z,15.27
2023-04-22T03:52:53.018Z,15.40
2023-04-22T03:57:33.851Z,15.98
2023-04-22T04:02:12.160Z,15.47
2023-04-22T04:06:51.662Z,18.15
2023-04-22T04:11:31.730Z,11.70
2023-04-22T04:16:12.154Z,14.30
2023-04-22T04:20:53.571Z,14.30
2023-04-22T04:25:37.943Z,13.93
2023-04-22T04:30:21.895Z,14.70
2023-04-22T04:35:06.839Z,18.60
2023-04-22T04:39:47.028Z,14.05
2023-04-22T04:44:27.546Z,16.67
2023-04-22T04:49:12.581Z,16.47
2023-04-22T04:54:08.664Z,13.40
2023-04-22T04:58:52.876Z,12.50
2023-04-22T05:03:36.013Z,13.40
2023-04-22T05:08:15.283Z,13.32
2023-04-22T05:12:59.831Z,14.57
2023-04-22T05:17:40.609Z,13.90
2023-04-22T05:22:19.922Z,12.65
2023-04-22T05:26:59.546Z,13.63
2023-04-22T05:31:40.471Z,15.48
2023-04-22T05:36:18.541Z,13.63
2023-04-22T05:40:58.171Z,13.75
2023-04-22T05:45:37.759Z,11.70
2023-04-22T05:50:23.421Z,13.23
2023-04-22T05:55:12.151Z,13.35
2023-04-22T05:59:51.713Z,13.02
2023-04-22T06:04:33.092Z,13.40
2023-04-22T06:09:15.337Z,12.63
2023-04-22T06:13:54.027Z,11.80
2023-04-22T06:18:34.256Z,12.07
2023-04-22T06:23:12.505Z,10.63
2023-04-22T06:27:53.975Z,12.48
2023-04-22T06:32:34.870Z,12.43
2023-04-22T06:37:14.258Z,11.50
2023-04-22T06:41:54.156Z,11.57
2023-04-22T06:46:50.181Z,12.13
2023-04-22T06:51:52.959Z,14.50
2023-04-22T06:56:32.577Z,11.73
2023-04-22T07:01:12.286Z,12.00
2023-04-22T07:05:53.124Z,11.38
2023-04-22T07:10:31.309Z,9.90
2023-04-22T07:15:29.384Z,11.23
2023-04-22T07:20:09.796Z,10.38
2023-04-22T07:24:49.740Z,10.87
2023-04-22T07:29:27.873Z,10.07
2023-04-22T07:34:07.666Z,10.68
2023-04-22T07:38:50.108Z,8.67
2023-04-22T07:43:31.270Z,11.13
2023-04-22T07:48:09.353Z,11.25
2023-04-22T07:52:48.701Z,10.57
2023-04-22T07:57:28.284Z,11.63
2023-04-22T08:02:09.491Z,9.70
2023-04-22T08:06:47.510Z,9.45
2023-04-22T08:11:27.052Z,9.83
2023-04-22T08:16:07.996Z,9.95
2023-04-22T08:20:48.066Z,10.30
2023-04-22T08:25:27.267Z,10.07
2023-04-22T08:30:12.074Z,9.35
2023-04-22T08:34:52.046Z,8.27
2023-04-22T08:39:34.986Z,7.53
2023-04-22T08:44:13.319Z,10.60
2023-04-22T08:48:53.248Z,9.70
2023-04-22T08:53:32.776Z,11.80
2023-04-22T08:58:13.858Z,11.63
2023-04-22T09:02:53.357Z,9.20
2023-04-22T09:07:32.591Z,11.45
2023-04-22T09:12:10.575Z,8.97
2023-04-22T09:16:51.665Z,11.77
2023-04-22T09:21:30.122Z,9.65
2023-04-22T09:26:09.640Z,8.38
2023-04-22T09:30:48.837Z,8.57
2023-04-22T09:35:32.049Z,9.13
2023-04-22T09:40:16.315Z,8.60
2023-04-22T09:44:54.195Z,8.67
2023-04-22T09:49:39.217Z,8.20
2023-04-22T09:54:20.212Z,7.03
2023-04-22T09:58:58.380Z,8.93
2023-04-22T10:03:37.994Z,8.02
2023-04-22T10:08:18.600Z,8.73
2023-04-22T10:12:58.927Z,8.40
2023-04-22T10:17:40.474Z,8.13
2023-04-22T10:22:19.752Z,9.02
2023-04-22T10:27:00.218Z,9.90
2023-04-22T10:31:40.884Z,8.67
2023-04-22T10:36:22.007Z,8.05
2023-04-22T10:41:00.931Z,9.48
2023-04-22T10:45:40.190Z,8.83
2023-04-22T10:50:26.050Z,9.60
2023-04-22T10:55:06.229Z,9.77
2023-04-22T10:59:50.231Z,8.57
2023-04-22T11:04:30.901Z,8.30
2023-04-22T11:09:12.908Z,9.23
2023-04-22T11:13:53.672Z,8.52
2023-04-22T11:18:33.293Z,9.07
2023-04-22T11:23:12.355Z,7.20
2023-04-22T11:27:55.199Z,7.55
2023-04-22T11:32:34.313Z,6.83
2023-04-22T11:37:20.986Z,8.18
2023-04-22T11:41:59.495Z,8.38
2023-04-22T11:46:41.801Z,8.57
2023-04-22T11:51:26.370Z,8.50
2023-04-22T11:56:04.827Z,6.93
2023-04-22T12:00:49.123Z,8.05
2023-04-22T12:05:42.387Z,7.87
2023-04-22T12:10:24.947Z,6.57
2023-04-22T12:15:12.659Z,7.82
2023-04-22T12:19:56.641Z,8.37
2023-04-22T12:24:36.779Z,7.63
2023-04-22T12:29:14.990Z,7.82
2023-04-22T12:33:57.605Z,6.78
2023-04-22T12:38:38.572Z,6.83
2023-04-22T12:43:18.377Z,7.00
2023-04-22T12:47:56.896Z,6.28
2023-04-22T12:52:39.631Z,6.03
2023-04-22T12:57:21.119Z,7.32
2023-04-22T13:02:06.061Z,7.30
2023-04-22T13:06:46.146Z,5.20
2023-04-22T13:11:26.363Z,6.55
2023-04-22T13:16:06.359Z,6.38
2023-04-22T13:20:47.848Z,6.03
2023-04-22T13:25:28.144Z,4.60
2023-04-22T13:30:09.712Z,5.97
2023-04-22T13:34:48.395Z,6.05
2023-04-22T13:39:28.304Z,7.60
2023-04-22T13:44:06.484Z,7.00
2023-04-22T13:48:45.868Z,6.55
2023-04-22T13:53:25.485Z,7.70
2023-04-22T13:58:07.635Z,5.78
2023-04-22T14:02:47.899Z,6.32
2023-04-22T14:07:27.165Z,7.75
2023-04-22T14:12:08.248Z,6.07
2023-04-22T14:16:47.778Z,7.70
2023-04-22T14:21:29.605Z,7.20
2023-04-22T14:26:09.979Z,6.40
2023-04-22T14:30:48.350Z,6.82
2023-04-22T14:35:28.956Z,8.20
2023-04-22T14:40:08.673Z,5.73
2023-04-22T14:44:46.978Z,8.90
2023-04-22T14:49:26.267Z,6.90
2023-04-22T14:54:07.700Z,6.68
2023-04-22T14:58:45.378Z,7.67
2023-04-22T15:03:25.082Z,7.18
2023-04-22T15:08:04.506Z,6.60
2023-04-22T15:12:45.903Z,7.57
2023-04-22T15:17:23.918Z,8.98
2023-04-22T15:22:04.533Z,7.60
2023-04-22T15:26:42.864Z,7.43
2023-04-22T15:31:23.801Z,6.68
2023-04-22T15:36:04.226Z,6.97
2023-04-22T15:40:48.832Z,6.90
2023-04-22T15:45:27.430Z,6.80
2023-04-22T15:50:10.138Z,6.40
2023-04-22T15:54:49.911Z,8.38
2023-04-22T15:59:29.082Z,8.70
2023-04-22T16:04:09.197Z,8.98
2023-04-22T16:08:49.624Z,9.65
2023-04-22T16:13:27.801Z,7.93
2023-04-22T16:18:07.328Z,8.52
2023-04-22T16:22:47.044Z,7.82
2023-04-22T16:27:27.583Z,7.57
2023-04-22T16:32:06.470Z,6.97
2023-04-22T16:36:45.627Z,7.47
2023-04-22T16:41:24.912Z,8.40
2023-04-22T16:46:06.318Z,10.00
2023-04-22T16:50:44.028Z,9.15
2023-04-22T16:55:23.752Z,8.02
2023-04-22T17:00:05.857Z,7.90
2023-04-22T17:04:47.396Z,6.85
2023-04-22T17:09:25.410Z,8.18
2023-04-22T17:14:04.971Z,7.28
2023-04-22T17:18:44.883Z,11.03
2023-04-22T17:23:27.168Z,10.10
2023-04-22T17:28:11.322Z,9.63
2023-04-22T17:32:49.816Z,10.00
2023-04-22T17:37:28.798Z,9.57
2023-04-22T17:42:09.887Z,8.88
2023-04-22T17:46:48.075Z,10.20
2023-04-22T17:51:27.971Z,9.90
2023-04-22T17:56:07.441Z,10.40
2023-04-22T18:00:48.099Z,11.38
2023-04-22T18:05:27.100Z,9.63
2023-04-22T18:10:06.720Z,11.75
2023-04-22T18:14:45.601Z,9.88
2023-04-22T18:19:26.266Z,10.00
2023-04-22T18:24:04.661Z,9.15
2023-04-22T18:28:44.756Z,10.80
2023-04-22T18:33:23.604Z,9.37
2023-04-22T18:38:04.691Z,9.80
2023-04-22T18:42:45.042Z,11.05
2023-04-22T18:47:25.430Z,9.88
2023-04-22T18:52:05.133Z,12.00
2023-04-22T18:56:46.440Z,10.93
2023-04-22T19:01:24.112Z,20.83
2023-04-22T19:06:03.518Z,11.77
2023-04-22T19:10:43.372Z,10.30
2023-04-22T19:15:24.172Z,11.85
2023-04-22T19:20:02.501Z,13.50
2023-04-22T19:24:42.213Z,9.75
2023-04-22T19:29:21.405Z,12.40
2023-04-22T19:34:02.808Z,12.18
2023-04-22T19:38:40.975Z,13.10
2023-04-22T19:43:21.894Z,10.50
2023-04-22T19:48:00.201Z,13.57
2023-04-22T19:52:42.852Z,13.73
2023-04-22T19:57:25.079Z,15.73
2023-04-22T20:02:07.213Z,11.70
2023-04-22T20:06:47.397Z,14.10
2023-04-22T20:11:29.564Z,13.32
2023-04-22T20:16:10.701Z,13.38
2023-04-22T20:20:30.931Z,13.95
2023-04-22T20:24:55.212Z,15.23
2023-04-22T20:29:16.011Z,13.75
2023-04-22T20:33:35.715Z,13.70
2023-04-22T20:37:59.211Z,13.57
2023-04-22T20:42:18.337Z,14.77
2023-04-22T20:46:58.301Z,14.20
2023-04-22T20:51:38.335Z,13.60
2023-04-22T20:55:56.220Z,13.13
2023-04-22T21:00:16.065Z,13.77
2023-04-22T21:04:37.565Z,16.15
2023-04-22T21:08:57.789Z,11.87
2023-04-22T21:13:18.519Z,13.20
2023-04-22T21:17:38.652Z,11.93
2023-04-22T21:22:00.758Z,11.10
2023-04-22T21:26:19.597Z,11.30
2023-04-22T21:30:39.735Z,9.50
2023-04-22T21:34:57.804Z,10.97
2023-04-22T21:39:16.740Z,10.00
2023-04-22T21:43:36.291Z,14.27
2023-04-22T21:47:54.692Z,13.38
2023-04-22T21:52:12.367Z,9.93
2023-04-22T21:56:33.603Z,10.82
2023-04-22T22:00:51.626Z,10.98
2023-04-22T22:05:10.687Z,10.83
2023-04-22T22:09:31.769Z,12.23
2023-04-22T22:13:51.041Z,11.25
2023-04-22T22:18:10.368Z,12.90
2023-04-22T22:22:27.999Z,11.93
2023-04-22T22:26:46.030Z,12.05
2023-04-22T22:31:05.820Z,11.95
2023-04-22T22:35:27.715Z,11.27
2023-04-22T22:39:46.490Z,10.10
2023-04-22T22:44:04.525Z,10.52
2023-04-22T22:48:24.070Z,13.23
2023-04-22T22:52:43.599Z,10.80
2023-04-22T22:57:01.753Z,14.00
2023-04-22T23:01:19.846Z,12.20
2023-04-22T23:05:39.637Z,10.93
2023-04-22T23:09:59.004Z,11.73
2023-04-22T23:14:17.912Z,10.82
2023-04-22T23:18:37.396Z,11.73
2023-04-22T23:22:58.741Z,9.25
2023-04-22T23:27:17.989Z,9.25
2023-04-22T23:31:36.519Z,8.90
2023-04-22T23:35:58.021Z,9.50
2023-04-22T23:40:19.217Z,8.98
2023-04-22T23:44:39.006Z,10.47
2023-04-22T23:48:57.325Z,10.15
2023-04-22T23:53:14.750Z,10.27
2023-04-22T23:57:35.145Z,10.48
